createdAt,value
2017-10-20T00:00:02.322Z,100017.48
2017-10-20T00:02:28.599Z,100020.67
2017-10-20T00:04:54.847Z,100021.63
2017-10-20T00:07:21.959Z,100014.61
2017-10-20T00:09:48.280Z,100020.78
2017-10-20T00:12:14.622Z,100021.09
2017-10-20T00:14:40.866Z,100017.77
2017-10-20T00:17:07.139Z,100016.98
2017-10-20T00:19:33.421Z,100020.30
2017-10-20T00:21:59.694Z,100013.27
2017-10-20T00:24:26.103Z,100017.16
2017-10-20T00:26:52.530Z,100008.45
2017-10-20T00:29:18.795Z,100017.60
2017-10-20T00:31:45.070Z,100020.86
2017-10-20T00:34:11.336Z,100020.16
2017-10-20T00:36:37.600Z,100019.24
2017-10-20T00:39:03.896Z,100018.52
2017-10-20T00:41:30.170Z,100021.50
2017-10-20T00:43:56.444Z,100020.72
2017-10-20T00:46:22.707Z,100019.86
2017-10-20T00:48:48.987Z,100015.09
2017-10-20T00:51:15.244Z,100016.70
2017-10-20T00:53:41.497Z,100011.25
2017-10-20T00:56:07.760Z,100021.31
2017-10-20T00:58:34.017Z,100014.70
2017-10-20T01:01:00.365Z,100009.45
2017-10-20T01:03:26.681Z,100016.22
2017-10-20T01:05:52.970Z,100017.75
2017-10-20T01:08:19.239Z,100018.84
2017-10-20T01:10:45.477Z,100019.66
2017-10-20T01:13:11.742Z,100019.14
2017-10-20T01:15:38.015Z,100020.73
2017-10-20T01:18:04.282Z,100026.49
2017-10-20T01:20:30.592Z,100021.87
2017-10-20T01:22:56.850Z,100028.08
2017-10-20T01:25:23.160Z,100021.97
2017-10-20T01:27:49.439Z,100024.38
2017-10-20T01:30:15.728Z,100022.42
2017-10-20T01:32:42.146Z,100030.89
2017-10-20T01:35:08.395Z,100024.07
2017-10-20T01:37:34.671Z,100019.92
2017-10-20T01:40:00.931Z,100021.50
2017-10-20T01:42:27.194Z,100024.13
2017-10-20T01:44:53.462Z,100020.73
2017-10-20T01:47:19.726Z,100027.92
2017-10-20T01:49:46.053Z,100029.50
2017-10-20T01:52:12.333Z,100028.29
2017-10-20T01:54:38.613Z,100023.66
2017-10-20T01:57:04.888Z,100031.83
2017-10-20T01:59:31.165Z,100028.08
2017-10-20T02:01:57.499Z,100028.09
2017-10-20T02:04:23.778Z,100030.86
2017-10-20T02:06:50.058Z,100029.05
2017-10-20T02:09:16.336Z,100038.08
2017-10-20T02:11:42.618Z,100034.02
2017-10-20T02:14:08.883Z,100036.77
2017-10-20T02:16:35.162Z,100037.13
2017-10-20T02:19:01.437Z,100036.30
2017-10-20T02:21:27.938Z,100036.38
2017-10-20T02:23:54.227Z,100033.18
2017-10-20T02:26:20.550Z,100033.89
2017-10-20T02:28:46.835Z,100034.55
2017-10-20T02:31:13.111Z,100033.15
2017-10-20T02:33:39.416Z,100041.00
2017-10-20T02:36:05.695Z,100035.02
2017-10-20T02:38:32.003Z,100023.60
2017-10-20T02:40:58.277Z,100038.17
2017-10-20T02:43:24.545Z,100041.25
2017-10-20T02:45:50.808Z,100037.03
2017-10-20T02:48:17.093Z,100039.70
2017-10-20T02:50:43.425Z,100036.89
2017-10-20T02:53:09.734Z,100039.30
2017-10-20T02:55:36.028Z,100040.98
2017-10-20T02:58:02.324Z,100041.45
2017-10-20T03:00:28.582Z,100043.66
2017-10-20T03:02:54.854Z,100048.67
2017-10-20T03:05:21.127Z,100045.19
2017-10-20T03:07:47.396Z,100055.31
2017-10-20T03:10:13.662Z,100052.81
2017-10-20T03:12:39.927Z,100049.89
2017-10-20T03:15:06.239Z,100050.03
2017-10-20T03:17:32.508Z,100054.73
2017-10-20T03:19:58.773Z,100060.78
2017-10-20T03:22:25.032Z,100056.47
2017-10-20T03:24:51.276Z,100055.89
2017-10-20T03:27:17.547Z,100051.06
2017-10-20T03:29:43.802Z,100046.87
2017-10-20T03:32:10.228Z,100052.44
2017-10-20T03:34:36.508Z,100057.55
2017-10-20T03:37:02.774Z,100051.91
2017-10-20T03:39:29.093Z,100056.89
2017-10-20T03:41:55.357Z,100053.20
2017-10-20T03:44:21.630Z,100054.30
2017-10-20T03:46:48.010Z,100053.26
2017-10-20T03:49:14.287Z,100052.41
2017-10-20T03:51:40.565Z,100051.58
2017-10-20T03:54:06.834Z,100051.14
2017-10-20T03:56:33.095Z,100049.08
2017-10-20T03:58:59.365Z,100057.45
2017-10-20T04:01:25.625Z,100065.78
2017-10-20T04:03:51.947Z,100063.90
2017-10-20T04:06:18.216Z,100070.28
2017-10-20T04:08:44.494Z,100064.59
2017-10-20T04:11:10.767Z,100065.05
2017-10-20T04:13:37.049Z,100063.13
2017-10-20T04:16:03.327Z,100054.25
2017-10-20T04:18:29.587Z,100060.25
2017-10-20T04:20:55.839Z,100058.23
2017-10-20T04:23:22.108Z,100051.16
2017-10-20T04:25:48.473Z,100058.59
2017-10-20T04:28:14.774Z,100048.48
2017-10-20T04:30:41.050Z,100058.39
2017-10-20T04:33:07.327Z,100054.72
2017-10-20T04:35:33.591Z,100062.12
2017-10-20T04:37:59.871Z,100059.84
2017-10-20T04:40:26.272Z,100068.16
2017-10-20T04:42:52.602Z,100064.95
2017-10-20T04:45:18.882Z,100065.86
2017-10-20T04:47:45.176Z,100073.48
2017-10-20T04:50:11.442Z,100069.97
2017-10-20T04:52:37.714Z,100077.08
2017-10-20T04:55:03.990Z,100077.41
2017-10-20T04:57:30.272Z,100066.92
2017-10-20T04:59:56.552Z,100071.58
2017-10-20T05:02:22.824Z,100067.59
2017-10-20T05:04:49.140Z,100071.42
2017-10-20T05:07:15.411Z,100065.02
2017-10-20T05:09:41.685Z,100061.69
2017-10-20T05:12:07.981Z,100061.66
2017-10-20T05:14:34.238Z,100063.65
2017-10-20T05:17:00.557Z,100064.86
2017-10-20T05:19:26.891Z,100063.05
2017-10-20T05:21:53.181Z,100065.33
2017-10-20T05:24:19.465Z,100067.37
2017-10-20T05:26:45.758Z,100067.54
2017-10-20T05:29:12.030Z,100072.53
2017-10-20T05:31:38.295Z,100076.00
2017-10-20T05:34:04.557Z,100078.34
2017-10-20T05:36:30.820Z,100075.67
2017-10-20T05:38:57.093Z,100061.00
2017-10-20T05:41:23.418Z,100070.53
2017-10-20T05:43:49.685Z,100074.56
2017-10-20T05:46:15.952Z,100073.84
2017-10-20T05:48:42.228Z,100078.75
2017-10-20T05:51:08.488Z,100080.64
2017-10-20T05:53:34.773Z,100081.41
2017-10-20T05:56:01.033Z,100085.48
2017-10-20T05:58:27.428Z,100085.86
2017-10-20T06:00:53.704Z,100090.97
2017-10-20T06:03:19.974Z,100086.81
2017-10-20T06:05:46.237Z,100086.02
2017-10-20T06:08:12.509Z,100089.62
2017-10-20T06:10:38.802Z,100086.08
2017-10-20T06:13:05.127Z,100087.64
2017-10-20T06:15:31.394Z,100086.09
2017-10-20T06:17:57.672Z,100089.34
2017-10-20T06:20:23.925Z,100094.61
2017-10-20T06:22:50.213Z,100090.83
2017-10-20T06:25:16.537Z,100094.05
2017-10-20T06:27:42.816Z,100095.08
2017-10-20T06:30:09.077Z,100091.89
2017-10-20T06:32:35.340Z,100093.74
2017-10-20T06:35:01.658Z,100098.73
2017-10-20T06:37:27.973Z,100096.13
2017-10-20T06:39:54.335Z,100092.13
2017-10-20T06:42:20.603Z,100098.91
2017-10-20T06:44:46.878Z,100094.58
2017-10-20T06:47:13.165Z,100091.87
2017-10-20T06:49:39.457Z,100086.27
2017-10-20T06:52:05.738Z,100085.20
2017-10-20T06:54:32.018Z,100090.45
2017-10-20T06:56:58.297Z,100084.34
2017-10-20T06:59:24.587Z,100085.14
2017-10-20T07:01:50.909Z,100089.25
2017-10-20T07:04:17.180Z,100085.77
2017-10-20T07:06:43.463Z,100079.57
2017-10-20T07:09:09.735Z,100082.73
2017-10-20T07:11:36.131Z,100076.27
2017-10-20T07:14:02.431Z,100079.75
2017-10-20T07:16:28.721Z,100081.83
2017-10-20T07:18:55.003Z,100080.11
2017-10-20T07:21:21.287Z,100081.37
2017-10-20T07:23:47.593Z,100076.09
2017-10-20T07:26:13.907Z,100074.48
2017-10-20T07:28:40.198Z,100068.29
2017-10-20T07:31:06.509Z,100074.84
2017-10-20T07:33:32.797Z,100074.76
2017-10-20T07:35:59.082Z,100069.83
2017-10-20T07:38:25.439Z,100064.27
2017-10-20T07:40:51.716Z,100072.68
2017-10-20T07:43:18.006Z,100070.91
2017-10-20T07:45:44.293Z,100068.41
2017-10-20T07:48:10.572Z,100067.45
2017-10-20T07:50:36.919Z,100065.42
2017-10-20T07:53:03.183Z,100063.02
2017-10-20T07:55:29.478Z,100061.83
2017-10-20T07:57:55.882Z,100055.57
2017-10-20T08:00:22.144Z,100058.31
2017-10-20T08:02:48.424Z,100057.94
2017-10-20T08:05:14.721Z,100057.44
2017-10-20T08:07:40.989Z,100055.79
2017-10-20T08:10:07.289Z,100050.20
2017-10-20T08:12:33.571Z,100052.58
2017-10-20T08:14:59.926Z,100062.79
2017-10-20T08:17:26.188Z,100057.91
2017-10-20T08:19:52.451Z,100056.41
2017-10-20T08:22:18.731Z,100057.87
2017-10-20T08:24:45.011Z,100053.22
2017-10-20T08:27:11.296Z,100045.50
2017-10-20T08:29:37.593Z,100049.12
2017-10-20T08:32:03.871Z,100042.31
2017-10-20T08:34:30.163Z,100045.48
2017-10-20T08:36:56.599Z,100045.33
2017-10-20T08:39:22.879Z,100042.62
2017-10-20T08:41:49.135Z,100045.64
2017-10-20T08:44:15.407Z,100044.09
2017-10-20T08:46:41.642Z,100042.05
2017-10-20T08:49:07.877Z,100039.83
2017-10-20T08:51:34.160Z,100042.36
2017-10-20T08:54:00.377Z,100037.27
2017-10-20T08:56:26.588Z,100036.37
2017-10-20T08:58:52.851Z,100030.91
2017-10-20T09:01:19.101Z,100030.72
2017-10-20T09:03:45.341Z,100025.05
2017-10-20T09:06:11.573Z,100026.01
2017-10-20T09:08:37.804Z,100025.91
2017-10-20T09:11:04.145Z,100023.15
2017-10-20T09:13:30.362Z,100023.91
2017-10-20T09:15:56.673Z,100021.58
2017-10-20T09:18:22.912Z,100022.41
2017-10-20T09:20:49.154Z,100018.05
2017-10-20T09:23:15.403Z,100022.08
2017-10-20T09:25:41.635Z,100021.84
2017-10-20T09:28:07.855Z,100014.31
2017-10-20T09:30:34.081Z,100024.57
2017-10-20T09:33:00.328Z,100016.30
2017-10-20T09:35:26.561Z,100013.27
2017-10-20T09:37:52.807Z,100011.41
2017-10-20T09:40:19.084Z,100008.69
2017-10-20T09:42:45.297Z,99997.73
2017-10-20T09:45:11.517Z,99999.64
2017-10-20T09:47:37.756Z,99996.08
2017-10-20T09:50:03.986Z,99993.63
2017-10-20T09:52:30.206Z,99995.78
2017-10-20T09:54:56.444Z,99993.33
2017-10-20T09:57:22.677Z,99991.26
2017-10-20T09:59:48.902Z,99988.86
2017-10-20T10:02:15.261Z,99981.95
2017-10-20T10:04:41.515Z,99980.64
2017-10-20T10:07:07.717Z,99980.16
2017-10-20T10:09:33.938Z,99978.64
2017-10-20T10:12:00.188Z,99968.77
2017-10-20T10:14:26.418Z,99966.51
2017-10-20T10:16:52.728Z,99968.23
2017-10-20T10:19:18.941Z,99963.02
2017-10-20T10:21:45.162Z,99960.45
2017-10-20T10:24:11.376Z,99960.92
2017-10-20T10:26:37.595Z,99957.44
2017-10-20T10:29:03.873Z,99951.97
2017-10-20T10:31:30.112Z,99952.71
2017-10-20T10:33:56.362Z,99951.30
2017-10-20T10:36:22.601Z,99948.77
2017-10-20T10:38:48.820Z,99944.35
2017-10-20T10:41:15.074Z,99948.74
2017-10-20T10:43:41.327Z,99944.55
2017-10-20T10:46:07.555Z,99939.48
2017-10-20T10:48:33.778Z,99939.48
2017-10-20T10:51:00.035Z,99934.92
2017-10-20T10:53:26.258Z,99929.69
2017-10-20T10:55:52.518Z,99930.24
2017-10-20T10:58:18.746Z,99925.08
2017-10-20T11:00:44.994Z,99927.33
2017-10-20T11:03:11.364Z,99921.90
2017-10-20T11:05:37.596Z,99921.96
2017-10-20T11:08:03.835Z,99920.77
2017-10-20T11:10:30.042Z,99921.28
2017-10-20T11:12:56.290Z,99917.02
2017-10-20T11:15:22.617Z,99916.49
2017-10-20T11:17:48.842Z,99917.94
2017-10-20T11:20:15.068Z,99910.24
2017-10-20T11:22:41.410Z,99907.77
2017-10-20T11:25:07.692Z,99912.45
2017-10-20T11:27:33.938Z,99908.69
2017-10-20T11:30:00.170Z,99903.91
2017-10-20T11:32:26.618Z,99904.11
2017-10-20T11:34:52.837Z,99901.31
2017-10-20T11:37:19.059Z,99895.67
2017-10-20T11:39:45.297Z,99894.34
2017-10-20T11:42:11.518Z,99901.00
2017-10-20T11:44:37.733Z,99896.75
2017-10-20T11:47:03.974Z,99895.11
2017-10-20T11:49:30.237Z,99894.81
2017-10-20T11:51:56.481Z,99891.39
2017-10-20T11:54:22.717Z,99892.11
2017-10-20T11:56:48.949Z,99889.67
2017-10-20T11:59:15.358Z,99889.48
2017-10-20T12:01:41.614Z,99890.44
2017-10-20T12:04:07.842Z,99888.50
2017-10-20T12:06:34.062Z,99892.41
2017-10-20T12:09:00.320Z,99893.27
2017-10-20T12:11:26.557Z,99893.81
2017-10-20T12:13:52.795Z,99886.87
2017-10-20T12:16:19.060Z,99890.87
2017-10-20T12:18:45.308Z,99886.21
2017-10-20T12:21:11.543Z,99888.88
2017-10-20T12:23:37.783Z,99886.73
2017-10-20T12:26:04.027Z,99890.47
2017-10-20T12:28:30.269Z,99881.83
2017-10-20T12:30:56.552Z,99882.53
2017-10-20T12:33:22.779Z,99881.09
2017-10-20T12:35:49.017Z,99878.87
2017-10-20T12:38:15.285Z,99878.41
2017-10-20T12:40:41.526Z,99881.91
2017-10-20T12:43:07.802Z,99870.25
2017-10-20T12:45:34.072Z,99874.83
2017-10-20T12:48:00.546Z,99875.80
2017-10-20T12:50:26.783Z,99875.03
2017-10-20T12:52:53.212Z,99867.41
2017-10-20T12:55:19.461Z,99876.03
2017-10-20T12:57:45.706Z,99868.64
2017-10-20T13:00:11.931Z,99862.37
2017-10-20T13:02:38.193Z,99864.48
2017-10-20T13:05:04.448Z,99866.07
2017-10-20T13:07:30.754Z,99871.21
2017-10-20T13:09:57.014Z,99865.38
2017-10-20T13:12:23.465Z,99862.59
2017-10-20T13:14:49.752Z,99862.23
2017-10-20T13:17:16.005Z,99866.16
2017-10-20T13:19:42.283Z,99864.16
2017-10-20T13:22:08.592Z,99864.22
2017-10-20T13:24:34.840Z,99863.04
2017-10-20T13:27:01.189Z,99873.78
2017-10-20T13:29:27.442Z,99863.58
2017-10-20T13:31:53.704Z,99860.11
2017-10-20T13:34:19.964Z,99863.47
2017-10-20T13:36:46.247Z,99859.34
2017-10-20T13:39:12.507Z,99863.80
2017-10-20T13:41:38.778Z,99867.25
2017-10-20T13:44:05.046Z,99863.52
2017-10-20T13:46:31.325Z,99850.58
2017-10-20T13:48:57.577Z,99861.00
2017-10-20T13:51:23.890Z,99861.41
2017-10-20T13:53:50.144Z,99863.54
2017-10-20T13:56:16.417Z,99863.34
2017-10-20T13:58:42.674Z,99854.81
2017-10-20T14:01:08.946Z,99852.94
2017-10-20T14:03:35.222Z,99860.08
2017-10-20T14:06:01.517Z,99852.99
2017-10-20T14:08:27.787Z,99857.95
2017-10-20T14:10:54.045Z,99860.41
2017-10-20T14:13:20.421Z,99864.33
2017-10-20T14:15:46.688Z,99862.52
2017-10-20T14:18:12.942Z,99862.13
2017-10-20T14:20:39.220Z,99870.19
2017-10-20T14:23:05.497Z,99867.55
2017-10-20T14:25:31.767Z,99853.12
2017-10-20T14:27:58.065Z,99874.62
2017-10-20T14:30:24.314Z,99876.21
2017-10-20T14:32:50.564Z,99875.09
2017-10-20T14:35:16.839Z,99872.33
2017-10-20T14:37:43.176Z,99873.59
2017-10-20T14:40:09.542Z,99875.30
2017-10-20T14:42:35.854Z,99879.16
2017-10-20T14:45:02.141Z,99870.77
2017-10-20T14:47:28.408Z,99866.73
2017-10-20T14:49:54.694Z,99869.59
2017-10-20T14:52:20.996Z,99874.64
2017-10-20T14:54:47.293Z,99877.14
2017-10-20T14:57:13.561Z,99880.77
2017-10-20T14:59:39.860Z,99881.51
2017-10-20T15:02:06.141Z,99887.44
2017-10-20T15:04:32.455Z,99879.98
2017-10-20T15:06:58.743Z,99889.20
2017-10-20T15:09:25.039Z,99899.20
2017-10-20T15:11:51.337Z,99893.02
2017-10-20T15:14:17.634Z,99897.70
2017-10-20T15:16:43.899Z,99900.38
2017-10-20T15:19:10.189Z,99903.98
2017-10-20T15:21:36.458Z,99900.08
2017-10-20T15:24:02.710Z,99909.76
2017-10-20T15:26:28.960Z,99907.81
2017-10-20T15:28:55.269Z,99905.22
2017-10-20T15:31:21.525Z,99908.94
2017-10-20T15:33:48.797Z,99912.35
2017-10-20T15:36:15.071Z,99912.70
2017-10-20T15:38:41.315Z,99917.48
2017-10-20T15:41:07.636Z,99916.16
2017-10-20T15:43:33.917Z,99925.25
2017-10-20T15:46:00.182Z,99925.23
2017-10-20T15:48:26.494Z,99927.25
2017-10-20T15:50:52.809Z,99934.12
2017-10-20T15:53:19.126Z,99934.46
2017-10-20T15:55:45.458Z,99940.80
2017-10-20T15:58:11.735Z,99940.44
2017-10-20T16:00:38.001Z,99950.55
2017-10-20T16:03:04.266Z,99947.94
2017-10-20T16:05:30.528Z,99955.86
2017-10-20T16:07:56.783Z,99960.52
2017-10-20T16:10:23.043Z,99963.18
2017-10-20T16:12:49.309Z,99965.34
2017-10-20T16:15:15.566Z,99967.40
2017-10-20T16:17:41.821Z,99973.13
2017-10-20T16:20:08.142Z,99971.67
2017-10-20T16:22:34.413Z,99974.56
2017-10-20T16:25:00.673Z,99980.65
2017-10-20T16:27:27.075Z,99984.03
2017-10-20T16:29:53.551Z,99984.70
2017-10-20T16:32:19.860Z,99981.70
2017-10-20T16:34:46.182Z,99983.18
2017-10-20T16:37:12.455Z,99979.90
2017-10-20T16:39:38.718Z,99985.02
2017-10-20T16:42:05.074Z,99990.95
2017-10-20T16:44:31.371Z,99986.69
2017-10-20T16:46:57.642Z,99988.53
2017-10-20T16:49:23.897Z,99995.27
2017-10-20T16:51:50.151Z,99984.94
2017-10-20T16:54:16.427Z,99989.94
2017-10-20T16:56:42.692Z,99994.98
2017-10-20T16:59:08.970Z,100002.25
2017-10-20T17:01:35.227Z,100002.41
2017-10-20T17:04:01.536Z,100002.75
2017-10-20T17:06:27.993Z,100008.18
2017-10-20T17:08:54.305Z,99999.94
2017-10-20T17:11:20.575Z,100008.02
2017-10-20T17:13:46.969Z,100002.83
2017-10-20T17:16:13.242Z,100013.75
2017-10-20T17:18:39.623Z,100012.15
2017-10-20T17:21:05.924Z,100015.48
2017-10-20T17:23:32.241Z,100008.62
2017-10-20T17:25:58.475Z,100013.70
2017-10-20T17:28:24.743Z,100009.78
2017-10-20T17:30:51.061Z,100013.47
2017-10-20T17:33:17.358Z,100018.86
2017-10-20T17:35:43.618Z,100010.97
2017-10-20T17:38:09.878Z,100018.91
2017-10-20T17:40:36.164Z,100019.19
2017-10-20T17:43:02.423Z,100001.80
2017-10-20T17:45:28.678Z,100019.79
2017-10-20T17:47:54.918Z,100014.50
2017-10-20T17:50:21.164Z,100022.24
2017-10-20T17:52:47.469Z,100025.97
2017-10-20T17:55:13.726Z,100024.31
2017-10-20T17:57:39.989Z,100023.45
2017-10-20T18:00:06.418Z,100024.16
2017-10-20T18:02:32.685Z,100006.13
2017-10-20T18:04:58.940Z,100028.95
2017-10-20T18:07:25.192Z,100025.22
2017-10-20T18:09:51.460Z,100030.70
2017-10-20T18:12:17.723Z,100034.52
2017-10-20T18:14:43.981Z,100032.00
2017-10-20T18:17:10.239Z,100034.81
2017-10-20T18:19:36.531Z,100034.55
2017-10-20T18:22:02.803Z,100036.34
2017-10-20T18:24:29.064Z,100034.41
2017-10-20T18:26:55.334Z,100037.78
2017-10-20T18:29:21.626Z,100036.84
2017-10-20T18:31:47.872Z,100033.04
2017-10-20T18:34:14.126Z,100039.65
2017-10-20T18:36:40.387Z,100039.41
2017-10-20T18:39:06.644Z,100037.95
2017-10-20T18:41:32.907Z,100041.27
2017-10-20T18:43:59.182Z,100046.84
2017-10-20T18:46:25.499Z,100039.36
2017-10-20T18:48:51.754Z,100043.64
2017-10-20T18:51:18.007Z,100042.78
2017-10-20T18:53:44.297Z,100037.85
2017-10-20T18:56:10.567Z,100050.70
2017-10-20T18:58:36.847Z,100054.39
2017-10-20T19:01:03.164Z,100050.63
2017-10-20T19:03:29.625Z,100047.50
2017-10-20T19:05:55.883Z,100053.28
2017-10-20T19:08:22.228Z,100054.94
2017-10-20T19:10:48.485Z,100054.23
2017-10-20T19:13:14.757Z,100051.84
2017-10-20T19:15:41.022Z,100058.26
2017-10-20T19:18:07.288Z,100062.86
2017-10-20T19:20:33.568Z,100066.26
2017-10-20T19:22:59.860Z,100061.36
2017-10-20T19:25:26.113Z,100063.80
2017-10-20T19:27:52.388Z,100059.59
2017-10-20T19:30:18.651Z,100059.33
2017-10-20T19:32:44.937Z,100065.54
2017-10-20T19:35:11.204Z,100063.12
2017-10-20T19:37:37.470Z,100066.97
2017-10-20T19:40:03.870Z,100064.44
2017-10-20T19:42:30.160Z,100067.13
2017-10-20T19:44:56.435Z,100069.77
2017-10-20T19:47:22.687Z,100073.94
2017-10-20T19:49:48.937Z,100067.68
2017-10-20T19:52:15.256Z,100071.16
2017-10-20T19:54:41.584Z,100068.63
2017-10-20T19:57:07.874Z,100074.55
2017-10-20T19:59:34.171Z,100078.02
2017-10-20T20:02:00.431Z,100082.23
2017-10-20T20:04:26.775Z,100069.70
2017-10-20T20:06:53.100Z,100073.61
2017-10-20T20:09:19.355Z,100071.26
2017-10-20T20:11:45.642Z,100078.68
2017-10-20T20:14:11.895Z,100073.89
2017-10-20T20:16:38.186Z,100076.20
2017-10-20T20:19:04.460Z,100078.91
2017-10-20T20:21:30.725Z,100079.22
2017-10-20T20:23:57.023Z,100077.63
2017-10-20T20:26:23.285Z,100076.19
2017-10-20T20:28:49.644Z,100081.03
2017-10-20T20:31:15.916Z,100059.02
2017-10-20T20:33:42.189Z,100084.52
2017-10-20T20:36:08.451Z,100078.06
2017-10-20T20:38:34.722Z,100078.48
2017-10-20T20:41:00.999Z,100083.66
2017-10-20T20:43:27.259Z,100080.72
2017-10-20T20:45:53.535Z,100084.14
2017-10-20T20:48:19.831Z,100083.95
2017-10-20T20:50:46.083Z,100091.09
2017-10-20T20:53:12.383Z,100088.70
2017-10-20T20:55:38.688Z,100089.42
2017-10-20T20:58:05.009Z,100089.32
2017-10-20T21:00:31.323Z,100092.20
2017-10-20T21:02:57.598Z,100086.97
2017-10-20T21:05:23.867Z,100091.62
2017-10-20T21:07:50.175Z,100089.24
2017-10-20T21:10:16.448Z,100089.72
2017-10-20T21:12:42.988Z,100088.04
2017-10-20T21:15:09.263Z,100096.25
2017-10-20T21:17:35.523Z,100088.41
2017-10-20T21:20:01.800Z,100087.24
2017-10-20T21:22:28.051Z,100081.25
2017-10-20T21:24:54.341Z,100084.86
2017-10-20T21:27:20.610Z,100085.25
2017-10-20T21:29:46.870Z,100082.56
2017-10-20T21:32:13.149Z,100081.93
2017-10-20T21:34:39.404Z,100080.59
2017-10-20T21:37:05.689Z,100076.38
2017-10-20T21:39:31.961Z,100085.42
2017-10-20T21:41:58.255Z,100083.16
2017-10-20T21:44:24.518Z,100080.84
2017-10-20T21:46:50.782Z,100077.63
2017-10-20T21:49:17.244Z,100076.41
2017-10-20T21:51:43.488Z,100071.44
2017-10-20T21:54:09.727Z,100079.97
2017-10-20T21:56:35.974Z,100079.36
2017-10-20T21:59:02.253Z,100085.12
2017-10-20T22:01:28.548Z,100078.69
2017-10-20T22:03:54.806Z,100073.28
2017-10-20T22:06:21.066Z,100075.75
2017-10-20T22:08:47.340Z,100078.49
2017-10-20T22:11:13.638Z,100076.29
2017-10-20T22:13:39.908Z,100081.23
2017-10-20T22:16:06.190Z,100078.13
2017-10-20T22:18:32.463Z,100088.12
2017-10-20T22:20:58.735Z,100091.59
2017-10-20T22:23:25.067Z,100086.02
2017-10-20T22:25:51.350Z,100086.30
2017-10-20T22:28:17.620Z,100086.55
2017-10-20T22:30:43.884Z,100085.29
2017-10-20T22:33:10.142Z,100078.78
2017-10-20T22:35:36.509Z,100079.48
2017-10-20T22:38:02.792Z,100083.66
2017-10-20T22:40:29.059Z,100084.86
2017-10-20T22:42:55.323Z,100084.73
2017-10-20T22:45:21.597Z,100084.11
2017-10-20T22:47:47.857Z,100084.73
2017-10-20T22:50:14.176Z,100083.59
2017-10-20T22:52:40.441Z,100084.69
2017-10-20T22:55:06.714Z,100082.63
2017-10-20T22:57:32.981Z,100090.72
2017-10-20T22:59:59.248Z,100083.87
2017-10-20T23:02:25.574Z,100087.11
2017-10-20T23:04:51.841Z,100084.09
2017-10-20T23:07:18.198Z,100085.92
2017-10-20T23:09:44.642Z,100065.28
2017-10-20T23:12:11.073Z,100086.84
2017-10-20T23:14:37.392Z,100088.52
2017-10-20T23:17:03.662Z,100089.03
2017-10-20T23:19:29.950Z,100091.10
2017-10-20T23:21:56.233Z,100084.81
2017-10-20T23:24:22.517Z,100091.16
2017-10-20T23:26:48.817Z,100088.27
2017-10-20T23:29:15.095Z,100088.94
2017-10-20T23:31:41.374Z,100087.56
2017-10-20T23:34:07.650Z,100081.55
2017-10-20T23:36:33.937Z,100080.88
2017-10-20T23:39:00.274Z,100087.46
2017-10-20T23:41:26.569Z,100086.85
2017-10-20T23:43:52.844Z,100087.78
2017-10-20T23:46:19.124Z,100084.89
2017-10-20T23:48:45.523Z,100078.53
2017-10-20T23:51:11.815Z,100086.99
2017-10-20T23:53:38.075Z,100083.35
2017-10-20T23:56:04.348Z,100085.34
2017-10-20T23:58:30.801Z,100084.27
